logo
Search for airport 
image banner adimage banner adimage banner ad
image banner ad

LZDV - Dubova

Located in Modra, Slovakia

ICAO - , IATA -

Data provided by Airmate  

General information

Coordinates: N48°20'49" E17°21'24"
Elevation is 634 feet MSL.
Magnetic variation is 4.1611° East
View others Airports in Trnava

Operational data

Special qualification required
Current time UTC:
Current local time:
Weather at : LZMC - Malacky ( 19 km )
TAF: TAF LZMC 131930Z 1321/1406 VRB02KT CAVOK
View NOTAMs / SUP AIP / TFR affecting this airport [VIEW]
Communications frequencies: [VIEW]

Runways:

RWY identifierQFULength (ft)Width (ft)SurfaceLDA (ft)
13165798GRASS
31165798GRASS

Airport contact information

Address: Modra Slovakia

Other aviation service providers

Aviation club (not for profit)

Pilot Club

Pilot Club

Satellite view of LZDV